Time;durP1;ratioP1;P1;durP2;ratioP2;P2;SDS_P1;SDS_P2;PMS_P1;PMS_P2;Temp;Humidity;BMP_temperature;BMP_pressure;BME280_temperature;BME280_humidity;BME280_pressure;Samples;Min_cycle;Max_cycle;Signal;HPM_P1;HPM_P2
2021/04/28 00:00:55;;;;;;;;;;;;;;;6.22;61.82;99172.06;5135738;27;20013;-72
2021/04/28 00:03:23;;;;;;;;;;;;;;;6.26;61.49;99178.88;5135018;27;19924;-72
2021/04/28 00:05:51;;;;;;;;;;;;;;;6.26;61.11;99178.03;5135032;27;20015;-71
2021/04/28 00:08:19;;;;;;;;;;;;;;;6.27;61.23;99174.66;5135024;27;20396;-72
2021/04/28 00:10:47;;;;;;;;;;;;;;;6.30;61.30;99170.47;5135074;28;19924;-72
2021/04/28 00:13:16;;;;;;;;;;;;;;;6.31;61.11;99172.16;5134997;28;19969;-72
2021/04/28 00:15:45;;;;;;;;;;;;;;;6.32;61.12;99166.25;5134926;28;19923;-72
2021/04/28 00:18:13;;;;;;;;;;;;;;;6.35;61.15;99173.88;5135183;28;19923;-71
2021/04/28 00:20:41;;;;;;;;;;;;;;;6.33;61.10;99160.38;5134846;28;19966;-72
2021/04/28 00:23:10;;;;;;;;;;;;;;;6.36;60.90;99165.44;5134824;28;19923;-72
2021/04/28 00:25:43;;;;;;;;;;;;;;;6.36;60.91;99155.28;5134976;28;19930;-71
2021/04/28 00:28:14;;;;;;;;;;;;;;;6.34;60.86;99159.50;5117177;28;19974;-72
2021/04/28 00:30:43;;;;;;;;;;;;;;;6.34;60.64;99162.03;5117625;27;19924;-71
2021/04/28 00:33:11;;;;;;;;;;;;;;;6.34;60.99;99161.19;5139032;27;19952;-72
2021/04/28 00:35:40;;;;;;;;;;;;;;;6.33;60.82;99165.44;5138988;27;19961;-71
2021/04/28 00:38:08;;;;;;;;;;;;;;;6.32;61.03;99163.72;5138912;27;19967;-72
2021/04/28 00:40:38;;;;;;;;;;;;;;;6.30;61.02;99160.34;5139106;27;20404;-71
2021/04/28 00:43:08;;;;;;;;;;;;;;;6.25;61.29;99161.13;5139126;27;19931;-72
2021/04/28 00:45:36;;;;;;;;;;;;;;;6.21;61.64;99160.25;5138698;27;19933;-72
2021/04/28 00:48:05;;;;;;;;;;;;;;;6.18;61.52;99164.44;5138710;27;19968;-71
2021/04/28 00:50:37;;;;;;;;;;;;;;;6.17;61.65;99158.53;5139072;27;20345;-72
2021/04/28 00:53:06;;;;;;;;;;;;;;;6.17;61.61;99162.75;5138712;27;19971;-71
2021/04/28 00:55:34;;;;;;;;;;;;;;;6.12;61.28;99170.28;5138919;27;19923;-72
2021/04/28 00:58:03;;;;;;;;;;;;;;;6.09;61.67;99170.28;5138297;27;20426;-73
2021/04/28 01:00:31;;;;;;;;;;;;;;;6.03;61.44;99171.06;5138560;27;19976;-72
2021/04/28 01:02:59;;;;;;;;;;;;;;;6.01;61.75;99171.91;5120098;27;19923;-72
2021/04/28 01:05:28;;;;;;;;;;;;;;;6.02;62.03;99168.53;5119983;27;19924;-71
2021/04/28 01:07:56;;;;;;;;;;;;;;;6.07;61.63;99167.72;5138343;27;20377;-71
2021/04/28 01:10:26;;;;;;;;;;;;;;;6.12;61.82;99169.47;5138249;27;19970;-72
2021/04/28 01:12:54;;;;;;;;;;;;;;;6.17;61.57;99166.13;5138169;27;19947;-72
2021/04/28 01:15:23;;;;;;;;;;;;;;;6.22;61.68;99172.06;5138737;27;19924;-72
2021/04/28 01:18:01;;;;;;;;;;;;;;;6.23;61.63;99163.66;5138448;27;20015;-72
2021/04/28 01:20:32;;;;;;;;;;;;;;;6.26;61.50;99163.69;5119890;27;19954;-72
2021/04/28 01:23:02;;;;;;;;;;;;;;;6.34;61.11;99166.25;5119816;27;19923;-72
2021/04/28 01:25:32;;;;;;;;;;;;;;;6.40;61.11;99169.72;5137941;27;19923;-72
2021/04/28 01:28:01;;;;;;;;;;;;;;;6.42;61.30;99170.56;5137972;27;19968;-71
2021/04/28 01:30:30;;;;;;;;;;;;;;;6.48;60.96;99164.66;5137858;27;20347;-72
2021/04/28 01:32:59;;;;;;;;;;;;;;;6.51;60.91;99172.31;5119780;27;20331;-72
2021/04/28 01:35:27;;;;;;;;;;;;;;;6.53;60.57;99179.09;5137752;27;20023;-72
2021/04/28 01:37:56;;;;;;;;;;;;;;;6.52;60.48;99172.34;5137727;27;19923;-72
2021/04/28 01:40:26;;;;;;;;;;;;;;;6.53;61.37;99166.41;5137723;27;19927;-72
2021/04/28 01:42:56;;;;;;;;;;;;;;;6.54;60.74;99174.88;5136771;27;19924;-72
2021/04/28 01:45:24;;;;;;;;;;;;;;;6.55;61.06;99172.31;5137538;27;19923;-72
2021/04/28 01:47:52;;;;;;;;;;;;;;;6.56;61.33;99161.38;5137548;27;20418;-72
2021/04/28 01:50:21;;;;;;;;;;;;;;;6.59;61.11;99161.41;5119233;27;19923;-72
2021/04/28 01:52:49;;;;;;;;;;;;;;;6.60;61.53;99155.47;5119176;27;19972;-72
2021/04/28 01:55:18;;;;;;;;;;;;;;;6.64;61.39;99156.34;5137454;27;19930;-72
2021/04/28 01:57:57;;;;;;;;;;;;;;;6.65;61.42;99152.97;5137277;27;20385;-73
2021/04/28 02:00:34;;;;;;;;;;;;;;;6.63;61.61;99159.72;5112565;28;19930;-72
2021/04/28 02:03:02;;;;;;;;;;;;;;;6.64;61.88;99149.59;5095385;28;19930;-72
2021/04/28 02:05:31;;;;;;;;;;;;;;;6.65;61.90;99152.97;5096231;28;20362;-72
2021/04/28 02:07:59;;;;;;;;;;;;;;;6.63;62.37;99155.50;5095059;28;19924;-72
2021/04/28 02:10:27;;;;;;;;;;;;;;;6.64;62.58;99152.13;5095015;28;19924;-72
2021/04/28 02:13:10;;;;;;;;;;;;;;;6.65;62.93;99148.75;5095079;28;19925;-72
2021/04/28 02:15:39;;;;;;;;;;;;;;;6.69;63.01;99150.44;5094849;28;19931;-72
2021/04/28 02:18:21;;;;;;;;;;;;;;;6.73;62.78;99142.03;5095080;28;19924;-72
2021/04/28 02:20:52;;;;;;;;;;;;;;;6.78;62.61;99148.81;5094892;28;19924;-72
2021/04/28 02:23:43;;;;;;;;;;;;;;;6.75;62.65;99145.44;5087657;28;19931;-72
2021/04/28 02:26:12;;;;;;;;;;;;;;;6.79;62.87;99137.84;5094867;28;19963;-72
2021/04/28 02:28:41;;;;;;;;;;;;;;;6.78;62.90;99148.81;5095841;28;19924;-72
2021/04/28 02:31:09;;;;;;;;;;;;;;;6.80;63.19;99142.06;5094628;28;20340;-72
2021/04/28 02:33:39;;;;;;;;;;;;;;;6.80;63.39;99152.19;5096257;28;19938;-71
2021/04/28 02:36:18;;;;;;;;;;;;;;;6.80;63.17;99142.91;5095769;28;19924;-72
2021/04/28 02:39:04;;;;;;;;;;;;;;;6.78;63.17;99144.59;5094547;28;20370;-72
2021/04/28 02:41:39;;;;;;;;;;;;;;;6.81;63.46;99141.22;5095686;28;20339;-72
2021/04/28 02:44:10;;;;;;;;;;;;;;;6.84;62.96;99146.34;5095489;28;19924;-72
2021/04/28 02:46:42;;;;;;;;;;;;;;;6.86;63.16;99139.56;5095512;28;19924;-72
2021/04/28 02:49:12;;;;;;;;;;;;;;;6.89;62.94;99142.09;5094317;28;19924;-72
2021/04/28 02:51:58;;;;;;;;;;;;;;;6.91;63.48;99142.97;5094248;28;19963;-72
2021/04/28 02:54:36;;;;;;;;;;;;;;;6.91;63.56;99146.34;5095584;28;19929;-72
2021/04/28 02:57:07;;;;;;;;;;;;;;;6.93;63.59;99149.75;5094151;28;19928;-72
2021/04/28 02:59:37;;;;;;;;;;;;;;;6.94;63.80;99150.59;5119642;27;19934;-72
2021/04/28 03:02:06;;;;;;;;;;;;;;;6.95;63.69;99147.22;5117846;27;19972;-72
2021/04/28 03:04:37;;;;;;;;;;;;;;;6.94;63.72;99146.38;5135942;27;19924;-72
2021/04/28 03:07:08;;;;;;;;;;;;;;;6.92;63.59;99148.06;5136031;27;19969;-72
2021/04/28 03:09:36;;;;;;;;;;;;;;;6.90;63.77;99143.81;5135958;27;19941;-72
2021/04/28 03:12:05;;;;;;;;;;;;;;;6.91;63.13;99148.88;5117668;27;19931;-72
2021/04/28 03:14:41;;;;;;;;;;;;;;;6.94;63.19;99140.44;5117571;27;19930;-72
2021/04/28 03:17:10;;;;;;;;;;;;;;;6.94;62.67;99150.59;5117485;27;19946;-72
2021/04/28 03:19:38;;;;;;;;;;;;;;;6.94;62.31;99150.59;5135790;27;19923;-72
2021/04/28 03:22:06;;;;;;;;;;;;;;;6.93;61.94;99149.75;5135739;27;20014;-72
2021/04/28 03:24:36;;;;;;;;;;;;;;;6.91;61.85;99156.50;5117617;27;20128;-72
2021/04/28 03:27:08;;;;;;;;;;;;;;;6.91;61.45;99158.19;5135603;27;19931;-71
2021/04/28 03:29:38;;;;;;;;;;;;;;;6.88;61.54;99161.56;5135658;27;19924;-73
2021/04/28 03:32:08;;;;;;;;;;;;;;;6.84;61.36;99159.84;5117745;27;19927;-72
2021/04/28 03:34:41;;;;;;;;;;;;;;;6.83;61.59;99160.69;5135543;27;20342;-72
2021/04/28 03:37:09;;;;;;;;;;;;;;;6.83;61.34;99167.44;5135962;27;20330;-72
2021/04/28 03:39:54;;;;;;;;;;;;;;;6.82;61.89;99161.50;5117522;27;19923;-72
2021/04/28 03:42:23;;;;;;;;;;;;;;;6.81;61.96;99164.06;5135665;27;20283;-72
2021/04/28 03:44:53;;;;;;;;;;;;;;;6.79;61.84;99160.66;5117097;27;19928;-72
2021/04/28 03:47:22;;;;;;;;;;;;;;;6.76;61.88;99166.56;5135661;27;20038;-72
2021/04/28 03:49:50;;;;;;;;;;;;;;;6.79;61.95;99160.66;5117267;27;19984;-72
2021/04/28 03:52:18;;;;;;;;;;;;;;;6.78;61.79;99164.03;5135206;27;20028;-72
2021/04/28 03:54:58;;;;;;;;;;;;;;;6.73;61.82;99164.88;5135516;27;20346;-72
2021/04/28 03:57:25;;;;;;;;;;;;;;;6.71;61.92;99166.53;5135357;27;19953;-76
2021/04/28 03:59:53;;;;;;;;;;;;;;;6.70;61.60;99172.44;5134809;27;19976;-72
2021/04/28 04:02:23;;;;;;;;;;;;;;;6.73;61.85;99167.41;5135378;27;20330;-72
2021/04/28 04:05:02;;;;;;;;;;;;;;;6.84;61.43;99171.69;5118561;27;19927;-72
2021/04/28 04:07:41;;;;;;;;;;;;;;;6.91;61.30;99171.72;5135353;27;20360;-73
2021/04/28 04:10:22;;;;;;;;;;;;;;;6.87;60.96;99174.22;5134934;27;19924;-73
2021/04/28 04:12:50;;;;;;;;;;;;;;;6.82;61.44;99170.81;5135019;27;19923;-72
2021/04/28 04:15:18;;;;;;;;;;;;;;;6.77;61.13;99168.25;5116677;28;19923;-73
2021/04/28 04:17:47;;;;;;;;;;;;;;;6.72;61.63;99175.81;5116560;28;19976;-73
2021/04/28 04:20:25;;;;;;;;;;;;;;;6.72;61.45;99173.28;5134951;28;19963;-72
2021/04/28 04:23:05;;;;;;;;;;;;;;;6.77;61.69;99172.50;5116732;28;19930;-72
2021/04/28 04:25:44;;;;;;;;;;;;;;;6.93;61.23;99169.19;5135255;28;19968;-72
2021/04/28 04:28:28;;;;;;;;;;;;;;;7.06;61.54;99170.94;5117081;28;19928;-72
2021/04/28 04:31:09;;;;;;;;;;;;;;;7.20;61.38;99176.94;5116567;28;20402;-72
2021/04/28 04:34:01;;;;;;;;;;;;;;;7.39;60.81;99177.00;5124186;28;19954;-72
2021/04/28 04:36:40;;;;;;;;;;;;;;;7.52;60.51;99177.06;5134827;28;19951;-73
2021/04/28 04:39:19;;;;;;;;;;;;;;;7.65;59.69;99184.75;5134736;28;19923;-73
2021/04/28 04:41:57;;;;;;;;;;;;;;;7.72;59.08;99186.44;5134588;28;20018;-72
2021/04/28 04:44:39;;;;;;;;;;;;;;;7.71;58.83;99189.81;5134522;28;20373;-73
2021/04/28 04:47:08;;;;;;;;;;;;;;;7.69;58.16;99186.44;5134673;28;19930;-72
2021/04/28 04:49:39;;;;;;;;;;;;;;;7.65;57.71;99179.66;5134503;28;19934;-72
2021/04/28 04:52:06;;;;;;;;;;;;;;;7.61;58.08;99188.09;5134599;28;19928;-72
2021/04/28 04:54:34;;;;;;;;;;;;;;;7.55;58.30;99183.00;5134542;28;19924;-73
2021/04/28 04:57:02;;;;;;;;;;;;;;;7.50;58.64;99184.69;5134747;28;19923;-73
2021/04/28 04:59:30;;;;;;;;;;;;;;;7.45;58.45;99188.88;5134172;28;19930;-73
2021/04/28 05:01:59;;;;;;;;;;;;;;;7.45;58.99;99181.28;5134410;28;19962;-71
2021/04/28 05:04:29;;;;;;;;;;;;;;;7.44;59.47;99182.09;5116714;28;20284;-72
2021/04/28 05:06:57;;;;;;;;;;;;;;;7.49;59.27;99188.03;5134403;28;19928;-72
2021/04/28 05:09:25;;;;;;;;;;;;;;;7.59;58.99;99183.84;5134326;28;19923;-72
2021/04/28 05:11:53;;;;;;;;;;;;;;;7.67;59.63;99188.13;5134349;28;20377;-73
2021/04/28 05:14:22;;;;;;;;;;;;;;;7.86;59.00;99189.88;5134339;28;20364;-72
2021/04/28 05:16:49;;;;;;;;;;;;;;;8.09;58.73;99188.19;5134266;27;19931;-72
2021/04/28 05:19:17;;;;;;;;;;;;;;;8.30;57.78;99181.47;5137215;27;20420;-72
2021/04/28 05:21:45;;;;;;;;;;;;;;;8.51;57.46;99181.47;5137934;27;19923;-72
2021/04/28 05:24:14;;;;;;;;;;;;;;;8.75;56.31;99184.00;5119564;27;19930;-72
2021/04/28 05:27:06;;;;;;;;;;;;;;;9.00;54.88;99174.63;5099286;27;19929;-72
2021/04/28 05:29:33;;;;;;;;;;;;;;;9.20;54.78;99171.16;5138179;27;19923;-73
2021/04/28 05:32:01;;;;;;;;;;;;;;;9.40;53.65;99174.47;5137814;27;19976;-74
2021/04/28 05:34:29;;;;;;;;;;;;;;;9.64;52.60;99172.66;5137796;27;19959;-72
2021/04/28 05:36:57;;;;;;;;;;;;;;;9.86;51.41;99169.94;5138067;27;20380;-72
2021/04/28 05:39:26;;;;;;;;;;;;;;;10.11;51.14;99180.84;5137579;27;19928;-72
2021/04/28 05:41:53;;;;;;;;;;;;;;;10.25;51.22;99175.66;5137592;27;19968;-71
2021/04/28 05:44:21;;;;;;;;;;;;;;;10.31;50.43;99175.63;5137895;27;19923;-72
2021/04/28 05:46:49;;;;;;;;;;;;;;;10.32;49.32;99172.25;5137843;27;20344;-73
2021/04/28 05:49:16;;;;;;;;;;;;;;;10.43;49.24;99167.88;5137519;27;19927;-72
2021/04/28 05:51:44;;;;;;;;;;;;;;;10.58;49.03;99167.75;5119465;27;20426;-73
2021/04/28 05:54:14;;;;;;;;;;;;;;;10.76;47.51;99163.31;5137507;27;19975;-72
2021/04/28 05:56:43;;;;;;;;;;;;;;;10.99;47.25;99159.69;5137353;27;19955;-72
2021/04/28 05:59:15;;;;;;;;;;;;;;;11.26;46.23;99156.81;5137631;27;19973;-73
2021/04/28 06:01:43;;;;;;;;;;;;;;;11.52;44.91;99159.88;5137302;27;19953;-73
2021/04/28 06:04:10;;;;;;;;;;;;;;;11.68;43.79;99158.00;5137477;27;19924;-72
2021/04/28 06:06:38;;;;;;;;;;;;;;;11.81;42.85;99164.63;5137207;27;19923;-72
2021/04/28 06:09:06;;;;;;;;;;;;;;;11.96;42.24;99162.72;5137187;27;20014;-72
2021/04/28 06:11:34;;;;;;;;;;;;;;;12.14;41.62;99164.13;5136929;27;19970;-71
2021/04/28 06:14:04;;;;;;;;;;;;;;;12.27;40.53;99159.69;5137076;27;19931;-72
2021/04/28 06:16:31;;;;;;;;;;;;;;;12.44;40.08;99163.66;5136931;27;19923;-72
2021/04/28 06:18:59;;;;;;;;;;;;;;;12.69;39.23;99164.09;5136873;27;19930;-72
2021/04/28 06:21:27;;;;;;;;;;;;;;;12.83;37.82;99151.88;5136948;27;19978;-72
2021/04/28 06:23:55;;;;;;;;;;;;;;;13.00;37.37;99157.53;5136820;27;19923;-72
2021/04/28 06:26:22;;;;;;;;;;;;;;;13.20;35.98;99157.16;5136743;27;20448;-72
2021/04/28 06:28:50;;;;;;;;;;;;;;;13.36;35.33;99154.25;5136488;27;19924;-72
2021/04/28 06:31:19;;;;;;;;;;;;;;;13.56;35.25;99155.56;5136640;27;20303;-72
2021/04/28 06:33:51;;;;;;;;;;;;;;;13.70;34.24;99153.59;5137011;27;19923;-71
2021/04/28 06:36:18;;;;;;;;;;;;;;;13.77;32.88;99155.94;5136535;27;19969;-71
2021/04/28 06:38:46;;;;;;;;;;;;;;;13.86;32.65;99152.34;5136567;27;19968;-72
2021/04/28 06:41:14;;;;;;;;;;;;;;;13.89;32.63;99149.72;5136371;27;19924;-70
2021/04/28 06:43:42;;;;;;;;;;;;;;;13.84;32.60;99156.69;5118236;27;19931;-71
2021/04/28 06:46:16;;;;;;;;;;;;;;;13.63;32.05;99154.59;5136364;27;19966;-72
2021/04/28 06:48:45;;;;;;;;;;;;;;;13.57;32.60;99157.28;5136275;27;20392;-71
2021/04/28 06:51:13;;;;;;;;;;;;;;;13.52;32.41;99153.97;5118008;27;19946;-71
2021/04/28 06:53:41;;;;;;;;;;;;;;;13.40;32.19;99145.66;5118125;27;20289;-74
2021/04/28 06:56:09;;;;;;;;;;;;;;;13.33;32.25;99141.53;5136411;27;19923;-72
2021/04/28 06:58:36;;;;;;;;;;;;;;;13.36;32.63;99143.19;5135848;27;19951;-71
2021/04/28 07:01:04;;;;;;;;;;;;;;;13.39;32.29;99143.97;5136105;27;20022;-72
2021/04/28 07:03:32;;;;;;;;;;;;;;;13.44;32.72;99147.28;5136021;27;20412;-72
2021/04/28 07:06:05;;;;;;;;;;;;;;;13.43;32.02;99147.31;5136413;27;19980;-72
2021/04/28 07:08:32;;;;;;;;;;;;;;;13.39;31.92;99149.09;5136015;27;19923;-71
2021/04/28 07:11:00;;;;;;;;;;;;;;;13.36;32.35;99158.56;5135773;27;19976;-72
2021/04/28 07:13:28;;;;;;;;;;;;;;;13.33;32.46;99149.22;5134858;27;20013;-73
2021/04/28 07:15:55;;;;;;;;;;;;;;;13.28;32.08;99145.91;5135267;27;19977;-73
2021/04/28 07:18:23;;;;;;;;;;;;;;;13.30;32.26;99149.28;5135677;27;19930;-73
2021/04/28 07:20:51;;;;;;;;;;;;;;;13.33;31.44;99143.25;5135641;27;19924;-72
2021/04/28 07:23:19;;;;;;;;;;;;;;;13.42;31.72;99138.78;5135586;27;19969;-71
2021/04/28 07:25:48;;;;;;;;;;;;;;;13.56;31.98;99140.19;5135767;27;19930;-73
2021/04/28 07:28:16;;;;;;;;;;;;;;;13.60;32.19;99136.69;5135173;27;19924;-72
2021/04/28 07:30:44;;;;;;;;;;;;;;;13.72;31.74;99132.16;5135756;27;19959;-72
2021/04/28 07:33:12;;;;;;;;;;;;;;;13.88;31.04;99137.78;5135276;27;19927;-71
2021/04/28 07:35:40;;;;;;;;;;;;;;;13.92;30.21;99139.38;5135278;27;19969;-73
2021/04/28 07:38:08;;;;;;;;;;;;;;;13.89;30.41;99144.59;5135250;27;20300;-73
2021/04/28 07:40:36;;;;;;;;;;;;;;;13.87;31.11;99138.63;5134591;27;19931;-72
2021/04/28 07:43:12;;;;;;;;;;;;;;;13.88;32.09;99137.78;5135270;27;19930;-72
2021/04/28 07:45:40;;;;;;;;;;;;;;;13.87;33.10;99136.06;5134898;27;19963;-72
2021/04/28 07:48:09;;;;;;;;;;;;;;;13.86;32.27;99134.41;5134519;27;19934;-71
2021/04/28 07:50:37;;;;;;;;;;;;;;;13.89;31.83;99139.47;5116774;27;20353;-72
2021/04/28 07:53:05;;;;;;;;;;;;;;;13.97;32.87;99137.56;5135140;27;20019;-72
2021/04/28 07:55:34;;;;;;;;;;;;;;;14.07;33.06;99133.91;5135438;27;19931;-72
2021/04/28 07:58:04;;;;;;;;;;;;;;;14.11;32.45;99140.63;5135231;27;19923;-73
2021/04/28 08:00:33;;;;;;;;;;;;;;;14.11;31.93;99140.63;5134536;27;20268;-71
2021/04/28 08:03:01;;;;;;;;;;;;;;;14.12;32.72;99134.63;5117342;27;20376;-74
2021/04/28 08:05:29;;;;;;;;;;;;;;;14.18;32.20;99129.34;5134960;27;19930;-72
2021/04/28 08:07:56;;;;;;;;;;;;;;;14.27;32.40;99136.84;5134978;27;19923;-71
2021/04/28 08:10:24;;;;;;;;;;;;;;;14.35;31.73;99134.94;5135233;27;20009;-72
2021/04/28 08:12:52;;;;;;;;;;;;;;;14.46;31.12;99132.13;5135229;27;19923;-73
2021/04/28 08:15:21;;;;;;;;;;;;;;;14.52;31.30;99131.94;5116632;28;19930;-72
2021/04/28 08:17:48;;;;;;;;;;;;;;;14.55;31.62;99132.72;5134832;28;19923;-73
2021/04/28 08:20:16;;;;;;;;;;;;;;;14.62;32.68;99129.13;5134785;28;19923;-72
2021/04/28 08:22:44;;;;;;;;;;;;;;;14.75;31.97;99125.38;5134865;28;19976;-73
2021/04/28 08:25:13;;;;;;;;;;;;;;;14.82;31.70;99125.19;5134719;28;19923;-72
2021/04/28 08:27:42;;;;;;;;;;;;;;;14.90;33.12;99123.25;5134771;28;19951;-72
2021/04/28 08:30:11;;;;;;;;;;;;;;;15.02;32.47;99113.47;5134784;28;19976;-73
2021/04/28 08:32:40;;;;;;;;;;;;;;;15.07;32.23;99110.81;5134773;28;19924;-73
2021/04/28 08:35:13;;;;;;;;;;;;;;;15.09;32.07;99114.16;5099855;28;19923;-73
2021/04/28 08:37:41;;;;;;;;;;;;;;;15.17;33.09;99114.78;5134871;28;20017;-73
2021/04/28 08:40:09;;;;;;;;;;;;;;;15.18;32.40;99116.47;5134987;28;19924;-73
2021/04/28 08:42:37;;;;;;;;;;;;;;;15.18;32.74;99121.63;5134608;28;19980;-72
2021/04/28 08:45:06;;;;;;;;;;;;;;;15.23;32.84;99117.19;5134553;28;19924;-72
2021/04/28 08:47:33;;;;;;;;;;;;;;;15.31;33.25;99120.34;5134539;28;19930;-73
2021/04/28 08:50:03;;;;;;;;;;;;;;;15.19;31.53;99118.13;5134554;28;19930;-73
2021/04/28 08:52:33;;;;;;;;;;;;;;;15.34;32.16;99120.28;5136644;27;19931;-73
2021/04/28 08:55:01;;;;;;;;;;;;;;;15.66;31.77;99116.78;5138362;27;19924;-73
2021/04/28 08:57:29;;;;;;;;;;;;;;;15.98;31.76;99120.06;5138378;27;20305;-72
2021/04/28 08:59:57;;;;;;;;;;;;;;;16.01;30.71;99117.38;5138284;27;20042;-73
2021/04/28 09:02:27;;;;;;;;;;;;;;;16.07;31.31;99130.06;5138366;27;19954;-72
2021/04/28 09:05:06;;;;;;;;;;;;;;;16.21;30.83;99105.59;5120361;27;20014;-73
2021/04/28 09:07:35;;;;;;;;;;;;;;;16.30;31.52;99108.72;5138654;27;20288;-73
2021/04/28 09:10:07;;;;;;;;;;;;;;;16.28;31.63;99112.22;5138381;27;20393;-74
2021/04/28 09:12:36;;;;;;;;;;;;;;;16.34;31.85;99124.94;5138623;27;20026;-73
2021/04/28 09:15:05;;;;;;;;;;;;;;;16.41;31.50;99106.63;5138135;27;19924;-73
2021/04/28 09:17:49;;;;;;;;;;;;;;;16.43;31.40;99104.84;5138157;27;19971;-74
2021/04/28 09:20:30;;;;;;;;;;;;;;;16.43;32.03;99101.44;5138398;27;19935;-73
2021/04/28 09:23:12;;;;;;;;;;;;;;;16.64;31.93;99111.03;5138408;27;19930;-72
2021/04/28 09:26:05;;;;;;;;;;;;;;;16.67;31.57;99106.63;5138304;27;19930;-74
2021/04/28 09:28:53;;;;;;;;;;;;;;;16.72;31.18;99093.59;5139091;27;19923;-73
2021/04/28 09:31:21;;;;;;;;;;;;;;;16.85;31.19;99099.97;5137926;27;20296;-73
2021/04/28 09:33:49;;;;;;;;;;;;;;;16.86;31.12;99096.50;5137799;27;19958;-74
2021/04/28 09:36:24;;;;;;;;;;;;;;;16.81;29.85;99085.53;5137737;27;19927;-73
2021/04/28 09:38:54;;;;;;;;;;;;;;;16.72;30.39;99094.41;5137870;27;19924;-72
2021/04/28 09:41:37;;;;;;;;;;;;;;;16.84;31.13;99082.84;5137488;27;19931;-73
2021/04/28 09:44:20;;;;;;;;;;;;;;;16.82;31.33;99079.47;5137600;27;19993;-73
2021/04/28 09:46:59;;;;;;;;;;;;;;;16.78;31.51;99072.75;5142539;27;19924;-72
2021/04/28 09:49:42;;;;;;;;;;;;;;;16.65;32.16;99081.81;5137457;27;19966;-73
2021/04/28 09:52:09;;;;;;;;;;;;;;;16.57;31.60;99082.06;5137677;27;19973;-72
2021/04/28 09:54:38;;;;;;;;;;;;;;;16.53;32.09;99077.91;5137381;27;19927;-73
2021/04/28 09:57:06;;;;;;;;;;;;;;;16.51;32.77;99071.97;5137706;27;20000;-73
2021/04/28 09:59:41;;;;;;;;;;;;;;;16.48;32.69;99071.22;5137047;27;19923;-72
2021/04/28 10:02:11;;;;;;;;;;;;;;;16.38;32.49;99072.41;5136844;27;20334;-72
2021/04/28 10:04:39;;;;;;;;;;;;;;;16.45;33.58;99066.16;5118342;27;19930;-72
2021/04/28 10:07:07;;;;;;;;;;;;;;;16.54;34.30;99063.28;5136639;27;19966;-72
2021/04/28 10:09:41;;;;;;;;;;;;;;;16.67;34.53;99067.97;5137608;27;19923;-72
2021/04/28 10:12:12;;;;;;;;;;;;;;;16.60;33.32;99070.81;5136944;27;19930;-71
2021/04/28 10:14:40;;;;;;;;;;;;;;;16.48;33.30;99063.47;5118891;27;19962;-70
2021/04/28 10:17:09;;;;;;;;;;;;;;;16.60;34.11;99063.09;5136762;27;19955;-73
2021/04/28 10:19:37;;;;;;;;;;;;;;;16.81;34.15;99066.63;5137003;27;20021;-73
2021/04/28 10:22:06;;;;;;;;;;;;;;;17.07;33.41;99071.69;5136853;27;19924;-72
2021/04/28 10:24:34;;;;;;;;;;;;;;;17.15;32.25;99052.47;5136994;27;20381;-73
2021/04/28 10:27:04;;;;;;;;;;;;;;;17.21;32.18;99052.22;5136699;27;19931;-72
2021/04/28 10:29:33;;;;;;;;;;;;;;;17.18;32.71;99052.34;5136692;27;19924;-72
2021/04/28 10:32:02;;;;;;;;;;;;;;;17.24;32.35;99046.97;5136678;27;20365;-72
2021/04/28 10:34:31;;;;;;;;;;;;;;;17.30;32.53;99051.88;5136714;27;19923;-73
2021/04/28 10:36:59;;;;;;;;;;;;;;;17.27;33.48;99059.75;5136285;27;19953;-72
2021/04/28 10:39:32;;;;;;;;;;;;;;;17.07;31.72;99043.31;5136574;27;20365;-74
2021/04/28 10:42:01;;;;;;;;;;;;;;;16.88;31.37;99043.16;5136331;27;19943;-75
2021/04/28 10:44:41;;;;;;;;;;;;;;;16.87;31.20;99046.63;5136633;27;20369;-72
2021/04/28 10:47:31;;;;;;;;;;;;;;;17.12;31.02;99042.25;5136216;27;19930;-73
2021/04/28 10:50:12;;;;;;;;;;;;;;;17.18;30.48;99042.03;5130519;27;20014;-73
2021/04/28 10:52:44;;;;;;;;;;;;;;;17.25;30.47;99038.31;5135877;27;20365;-74
2021/04/28 10:55:23;;;;;;;;;;;;;;;17.45;31.58;99045.28;5136348;27;19923;-72
2021/04/28 10:57:50;;;;;;;;;;;;;;;17.44;30.52;99034.13;5136190;27;19928;-72
2021/04/28 11:00:29;;;;;;;;;;;;;;;17.57;30.83;99042.28;5135741;27;19924;-73
2021/04/28 11:02:56;;;;;;;;;;;;;;;17.71;30.96;99036.56;5135641;27;19923;-73
2021/04/28 11:05:27;;;;;;;;;;;;;;;17.62;29.94;99034.34;5135757;27;19972;-75
2021/04/28 11:07:55;;;;;;;;;;;;;;;17.58;31.06;99032.78;5135963;27;19924;-74
2021/04/28 11:10:30;;;;;;;;;;;;;;;17.70;31.79;99034.88;5135914;27;19924;-73
2021/04/28 11:13:02;;;;;;;;;;;;;;;17.85;31.08;99034.28;5136161;27;19923;-72
2021/04/28 11:15:42;;;;;;;;;;;;;;;17.86;30.46;99028.19;5134466;27;19924;-72
2021/04/28 11:18:20;;;;;;;;;;;;;;;17.75;30.77;99017.47;5135603;27;19953;-73
2021/04/28 11:21:06;;;;;;;;;;;;;;;17.74;31.33;99026.97;5135532;27;19968;-72
2021/04/28 11:23:35;;;;;;;;;;;;;;;17.99;31.24;99022.50;5135877;27;19943;-72
2021/04/28 11:26:13;;;;;;;;;;;;;;;18.11;30.29;99025.47;5135667;27;19923;-74
2021/04/28 11:28:41;;;;;;;;;;;;;;;18.18;29.88;99027.72;5135659;27;19931;-73
2021/04/28 11:31:21;;;;;;;;;;;;;;;18.18;29.42;99016.53;5135412;27;20342;-73
2021/04/28 11:33:49;;;;;;;;;;;;;;;18.20;30.41;99018.16;5135589;27;19963;-73
2021/04/28 11:36:18;;;;;;;;;;;;;;;18.16;31.20;99008.88;5135479;27;19924;-74
2021/04/28 11:38:48;;;;;;;;;;;;;;;18.09;31.63;99017.78;5135420;27;19923;-73
2021/04/28 11:41:18;;;;;;;;;;;;;;;18.24;31.38;99009.38;5135213;27;20437;-73
2021/04/28 11:43:47;;;;;;;;;;;;;;;18.50;31.49;99014.28;5135416;27;20386;-73
2021/04/28 11:46:16;;;;;;;;;;;;;;;18.58;29.85;99008.78;5135035;27;20373;-72
2021/04/28 11:48:45;;;;;;;;;;;;;;;18.52;28.82;99007.31;5135421;27;19972;-73
2021/04/28 11:51:13;;;;;;;;;;;;;;;18.56;29.91;99003.69;5134903;27;19923;-73
2021/04/28 11:53:44;;;;;;;;;;;;;;;18.63;28.66;98999.94;5135125;27;19924;-73
2021/04/28 11:56:26;;;;;;;;;;;;;;;18.65;29.99;98995.53;5135202;27;19924;-72
2021/04/28 11:58:54;;;;;;;;;;;;;;;18.64;31.67;99006.78;5134988;27;19923;-73
2021/04/28 12:01:25;;;;;;;;;;;;;;;18.49;30.32;98997.13;5117061;27;20332;-73
2021/04/28 12:03:54;;;;;;;;;;;;;;;18.40;30.10;98999.22;5135015;27;20282;-73
2021/04/28 12:06:34;;;;;;;;;;;;;;;18.52;31.16;98994.38;5117029;27;20288;-73
2021/04/28 12:09:10;;;;;;;;;;;;;;;18.60;31.09;98994.91;5134972;27;19924;-72
2021/04/28 12:11:40;;;;;;;;;;;;;;;18.61;31.10;98987.97;5135047;27;19972;-73
2021/04/28 12:14:08;;;;;;;;;;;;;;;18.44;29.68;98983.53;5134888;27;19980;-73
2021/04/28 12:16:52;;;;;;;;;;;;;;;18.43;30.14;98981.84;5134920;27;19954;-73
2021/04/28 12:19:21;;;;;;;;;;;;;;;18.53;31.82;98983.16;5135092;28;19923;-73
2021/04/28 12:21:52;;;;;;;;;;;;;;;18.64;32.33;98980.91;5134836;28;19923;-74
2021/04/28 12:24:23;;;;;;;;;;;;;;;18.60;30.93;98966.47;5134747;28;19963;-73
2021/04/28 12:27:02;;;;;;;;;;;;;;;18.64;31.41;98964.59;5117587;27;19924;-74
2021/04/28 12:29:31;;;;;;;;;;;;;;;18.76;32.44;98953.69;5139015;27;19931;-74
2021/04/28 12:31:59;;;;;;;;;;;;;;;18.77;30.93;98957.94;5139397;27;19924;-73
2021/04/28 12:34:27;;;;;;;;;;;;;;;18.70;31.64;98952.22;5138904;27;19923;-74
2021/04/28 12:36:55;;;;;;;;;;;;;;;18.78;31.73;98948.44;5138995;27;19976;-74
2021/04/28 12:39:24;;;;;;;;;;;;;;;18.78;31.12;98946.72;5138921;27;19930;-74
2021/04/28 12:41:52;;;;;;;;;;;;;;;18.83;31.41;98944.75;5138818;27;19923;-73
2021/04/28 12:44:20;;;;;;;;;;;;;;;18.71;29.86;98948.72;5139082;27;20266;-74
2021/04/28 12:46:49;;;;;;;;;;;;;;;18.74;31.24;98943.41;5138549;27;20376;-73
2021/04/28 12:49:18;;;;;;;;;;;;;;;18.90;31.96;98942.72;5138970;27;20324;-74
2021/04/28 12:51:46;;;;;;;;;;;;;;;18.90;31.91;98934.97;5138905;27;19971;-73
2021/04/28 12:54:24;;;;;;;;;;;;;;;18.78;31.48;98935.53;5139081;27;20010;-73
2021/04/28 12:56:52;;;;;;;;;;;;;;;18.89;32.33;98930.69;5138769;27;20369;-74
2021/04/28 12:59:21;;;;;;;;;;;;;;;18.95;31.89;98922.66;5138217;27;19930;-73
2021/04/28 13:01:57;;;;;;;;;;;;;;;18.93;31.26;98919.31;5138282;27;20010;-72
2021/04/28 13:04:25;;;;;;;;;;;;;;;18.96;32.22;98911.38;5120006;27;19930;-74
2021/04/28 13:07:02;;;;;;;;;;;;;;;18.97;33.34;98918.25;5138165;27;20346;-72
2021/04/28 13:09:30;;;;;;;;;;;;;;;18.99;33.79;98921.59;5138682;27;20042;-73